sensor_id;sensor_type;location;lat;lon;timestamp;P1;durP1;ratioP1;P2;durP2;ratioP2
42094;SDS011;27753;55.724;37.612;2023-04-12T00:01:37;44.47;;;27.80;;
42094;SDS011;27753;55.724;37.612;2023-04-12T00:04:07;44.58;;;28.25;;
42094;SDS011;27753;55.724;37.612;2023-04-12T00:06:33;39.80;;;26.38;;
42094;SDS011;27753;55.724;37.612;2023-04-12T00:09:00;53.50;;;28.35;;
42094;SDS011;27753;55.724;37.612;2023-04-12T00:11:29;49.65;;;29.23;;
42094;SDS011;27753;55.724;37.612;2023-04-12T00:13:56;41.17;;;27.92;;
42094;SDS011;27753;55.724;37.612;2023-04-12T00:16:24;43.40;;;30.30;;
42094;SDS011;27753;55.724;37.612;2023-04-12T00:18:51;53.70;;;34.22;;
42094;SDS011;27753;55.724;37.612;2023-04-12T00:21:18;49.10;;;30.92;;
42094;SDS011;27753;55.724;37.612;2023-04-12T00:23:44;50.08;;;30.60;;
42094;SDS011;27753;55.724;37.612;2023-04-12T00:26:11;55.88;;;29.80;;
42094;SDS011;27753;55.724;37.612;2023-04-12T00:28:38;47.65;;;29.02;;
42094;SDS011;27753;55.724;37.612;2023-04-12T00:31:04;54.65;;;32.00;;
42094;SDS011;27753;55.724;37.612;2023-04-12T00:33:32;57.45;;;29.83;;
42094;SDS011;27753;55.724;37.612;2023-04-12T00:35:58;51.00;;;29.70;;
42094;SDS011;27753;55.724;37.612;2023-04-12T00:38:24;45.50;;;27.58;;
42094;SDS011;27753;55.724;37.612;2023-04-12T00:40:51;51.22;;;27.13;;
42094;SDS011;27753;55.724;37.612;2023-04-12T00:43:17;51.55;;;28.10;;
42094;SDS011;27753;55.724;37.612;2023-04-12T00:45:44;53.63;;;29.83;;
42094;SDS011;27753;55.724;37.612;2023-04-12T00:48:12;39.63;;;28.70;;
42094;SDS011;27753;55.724;37.612;2023-04-12T00:50:39;44.30;;;28.70;;
42094;SDS011;27753;55.724;37.612;2023-04-12T00:53:14;47.13;;;28.80;;
42094;SDS011;27753;55.724;37.612;2023-04-12T00:55:44;53.10;;;26.95;;
42094;SDS011;27753;55.724;37.612;2023-04-12T00:58:12;44.20;;;27.33;;
42094;SDS011;27753;55.724;37.612;2023-04-12T01:00:38;42.75;;;28.85;;
42094;SDS011;27753;55.724;37.612;2023-04-12T01:03:05;47.45;;;28.45;;
42094;SDS011;27753;55.724;37.612;2023-04-12T01:05:38;52.55;;;27.52;;
42094;SDS011;27753;55.724;37.612;2023-04-12T01:08:08;49.63;;;28.63;;
42094;SDS011;27753;55.724;37.612;2023-04-12T01:10:50;40.97;;;28.33;;
42094;SDS011;27753;55.724;37.612;2023-04-12T01:15:53;35.67;;;25.73;;
42094;SDS011;27753;55.724;37.612;2023-04-12T01:18:20;44.42;;;27.67;;
42094;SDS011;27753;55.724;37.612;2023-04-12T01:28:19;40.63;;;25.98;;
42094;SDS011;27753;55.724;37.612;2023-04-12T01:30:47;44.92;;;26.30;;
42094;SDS011;27753;55.724;37.612;2023-04-12T01:33:15;42.13;;;27.05;;
42094;SDS011;27753;55.724;37.612;2023-04-12T01:35:42;39.65;;;28.08;;
42094;SDS011;27753;55.724;37.612;2023-04-12T01:38:09;45.15;;;28.80;;
42094;SDS011;27753;55.724;37.612;2023-04-12T01:40:35;42.25;;;28.40;;
42094;SDS011;27753;55.724;37.612;2023-04-12T01:43:05;54.08;;;28.05;;
42094;SDS011;27753;55.724;37.612;2023-04-12T01:45:31;49.20;;;27.35;;
42094;SDS011;27753;55.724;37.612;2023-04-12T01:47:58;54.38;;;29.25;;
42094;SDS011;27753;55.724;37.612;2023-04-12T01:50:26;50.08;;;29.00;;
42094;SDS011;27753;55.724;37.612;2023-04-12T01:53:18;75.00;;;32.75;;
42094;SDS011;27753;55.724;37.612;2023-04-12T01:56:03;72.45;;;32.05;;
42094;SDS011;27753;55.724;37.612;2023-04-12T01:58:32;44.40;;;28.67;;
42094;SDS011;27753;55.724;37.612;2023-04-12T02:00:58;60.55;;;29.65;;
42094;SDS011;27753;55.724;37.612;2023-04-12T02:03:27;60.33;;;30.73;;
42094;SDS011;27753;55.724;37.612;2023-04-12T02:05:54;65.07;;;30.30;;
42094;SDS011;27753;55.724;37.612;2023-04-12T02:08:23;60.55;;;30.15;;
42094;SDS011;27753;55.724;37.612;2023-04-12T02:10:50;50.10;;;30.10;;
42094;SDS011;27753;55.724;37.612;2023-04-12T02:13:16;47.78;;;31.88;;
42094;SDS011;27753;55.724;37.612;2023-04-12T02:15:42;56.55;;;29.50;;
42094;SDS011;27753;55.724;37.612;2023-04-12T02:18:08;52.95;;;28.27;;
42094;SDS011;27753;55.724;37.612;2023-04-12T02:20:35;56.55;;;28.40;;
42094;SDS011;27753;55.724;37.612;2023-04-12T02:23:01;46.15;;;28.85;;
42094;SDS011;27753;55.724;37.612;2023-04-12T02:25:28;56.67;;;28.43;;
42094;SDS011;27753;55.724;37.612;2023-04-12T02:27:54;52.40;;;29.95;;
42094;SDS011;27753;55.724;37.612;2023-04-12T02:30:20;55.17;;;29.95;;
42094;SDS011;27753;55.724;37.612;2023-04-12T02:32:47;65.93;;;31.10;;
42094;SDS011;27753;55.724;37.612;2023-04-12T02:35:14;53.57;;;29.17;;
42094;SDS011;27753;55.724;37.612;2023-04-12T02:37:43;58.40;;;30.38;;
42094;SDS011;27753;55.724;37.612;2023-04-12T02:40:13;51.63;;;29.80;;
42094;SDS011;27753;55.724;37.612;2023-04-12T02:42:43;48.67;;;28.23;;
42094;SDS011;27753;55.724;37.612;2023-04-12T02:45:09;51.42;;;29.17;;
42094;SDS011;27753;55.724;37.612;2023-04-12T02:47:36;49.88;;;28.10;;
42094;SDS011;27753;55.724;37.612;2023-04-12T02:50:02;52.78;;;28.48;;
42094;SDS011;27753;55.724;37.612;2023-04-12T02:52:29;62.38;;;29.48;;
42094;SDS011;27753;55.724;37.612;2023-04-12T02:54:57;51.33;;;30.02;;
42094;SDS011;27753;55.724;37.612;2023-04-12T02:57:23;52.33;;;29.85;;
42094;SDS011;27753;55.724;37.612;2023-04-12T02:59:50;63.33;;;30.38;;
42094;SDS011;27753;55.724;37.612;2023-04-12T03:02:17;50.25;;;29.05;;
42094;SDS011;27753;55.724;37.612;2023-04-12T03:04:44;44.60;;;29.00;;
42094;SDS011;27753;55.724;37.612;2023-04-12T03:07:11;43.33;;;28.40;;
42094;SDS011;27753;55.724;37.612;2023-04-12T03:09:38;46.43;;;30.17;;
42094;SDS011;27753;55.724;37.612;2023-04-12T03:12:06;47.08;;;32.00;;
42094;SDS011;27753;55.724;37.612;2023-04-12T03:14:32;50.80;;;32.55;;
42094;SDS011;27753;55.724;37.612;2023-04-12T03:16:58;52.03;;;32.13;;
42094;SDS011;27753;55.724;37.612;2023-04-12T03:19:24;57.83;;;31.75;;
42094;SDS011;27753;55.724;37.612;2023-04-12T03:21:50;45.08;;;31.38;;
42094;SDS011;27753;55.724;37.612;2023-04-12T03:24:16;49.17;;;31.80;;
42094;SDS011;27753;55.724;37.612;2023-04-12T03:26:42;46.17;;;30.27;;
42094;SDS011;27753;55.724;37.612;2023-04-12T03:29:08;47.97;;;28.83;;
42094;SDS011;27753;55.724;37.612;2023-04-12T03:31:34;47.03;;;30.60;;
42094;SDS011;27753;55.724;37.612;2023-04-12T03:34:00;50.35;;;33.05;;
42094;SDS011;27753;55.724;37.612;2023-04-12T03:36:26;53.25;;;31.98;;
42094;SDS011;27753;55.724;37.612;2023-04-12T03:38:54;59.58;;;31.95;;
42094;SDS011;27753;55.724;37.612;2023-04-12T03:41:20;50.15;;;31.58;;
42094;SDS011;27753;55.724;37.612;2023-04-12T03:43:50;54.03;;;32.55;;
42094;SDS011;27753;55.724;37.612;2023-04-12T03:46:16;55.92;;;33.58;;
42094;SDS011;27753;55.724;37.612;2023-04-12T03:48:42;59.72;;;32.65;;
42094;SDS011;27753;55.724;37.612;2023-04-12T03:51:08;60.72;;;33.28;;
42094;SDS011;27753;55.724;37.612;2023-04-12T03:56:02;45.50;;;32.17;;
42094;SDS011;27753;55.724;37.612;2023-04-12T03:58:28;51.83;;;32.58;;
42094;SDS011;27753;55.724;37.612;2023-04-12T04:00:54;61.90;;;32.40;;
42094;SDS011;27753;55.724;37.612;2023-04-12T04:03:20;54.05;;;32.92;;
42094;SDS011;27753;55.724;37.612;2023-04-12T04:05:50;54.03;;;33.35;;
42094;SDS011;27753;55.724;37.612;2023-04-12T04:08:17;50.50;;;32.28;;
42094;SDS011;27753;55.724;37.612;2023-04-12T04:10:45;46.25;;;32.92;;
42094;SDS011;27753;55.724;37.612;2023-04-12T04:13:11;76.07;;;36.88;;
42094;SDS011;27753;55.724;37.612;2023-04-12T04:15:37;56.08;;;33.50;;
42094;SDS011;27753;55.724;37.612;2023-04-12T04:18:03;55.92;;;35.15;;
42094;SDS011;27753;55.724;37.612;2023-04-12T04:20:29;57.92;;;34.85;;
42094;SDS011;27753;55.724;37.612;2023-04-12T04:22:56;65.03;;;34.78;;
42094;SDS011;27753;55.724;37.612;2023-04-12T04:25:22;63.30;;;34.65;;
42094;SDS011;27753;55.724;37.612;2023-04-12T04:27:54;63.35;;;34.88;;
42094;SDS011;27753;55.724;37.612;2023-04-12T04:30:20;65.10;;;34.07;;
42094;SDS011;27753;55.724;37.612;2023-04-12T04:32:47;56.28;;;32.22;;
42094;SDS011;27753;55.724;37.612;2023-04-12T04:35:14;49.40;;;37.40;;
42094;SDS011;27753;55.724;37.612;2023-04-12T04:37:41;57.40;;;35.92;;
42094;SDS011;27753;55.724;37.612;2023-04-12T04:40:08;61.33;;;35.03;;
42094;SDS011;27753;55.724;37.612;2023-04-12T04:42:38;56.67;;;35.40;;
42094;SDS011;27753;55.724;37.612;2023-04-12T04:45:07;53.63;;;35.20;;
42094;SDS011;27753;55.724;37.612;2023-04-12T04:47:40;62.85;;;36.17;;
42094;SDS011;27753;55.724;37.612;2023-04-12T04:50:07;62.45;;;34.55;;
42094;SDS011;27753;55.724;37.612;2023-04-12T04:52:33;53.58;;;36.42;;
42094;SDS011;27753;55.724;37.612;2023-04-12T04:54:59;60.47;;;37.05;;
42094;SDS011;27753;55.724;37.612;2023-04-12T04:57:26;58.60;;;37.05;;
42094;SDS011;27753;55.724;37.612;2023-04-12T04:59:52;58.78;;;36.22;;
42094;SDS011;27753;55.724;37.612;2023-04-12T05:02:17;59.92;;;33.97;;
42094;SDS011;27753;55.724;37.612;2023-04-12T05:04:43;60.10;;;33.35;;
42094;SDS011;27753;55.724;37.612;2023-04-12T05:07:09;56.35;;;34.28;;
42094;SDS011;27753;55.724;37.612;2023-04-12T05:09:38;48.05;;;30.30;;
42094;SDS011;27753;55.724;37.612;2023-04-12T05:12:04;50.90;;;33.38;;
42094;SDS011;27753;55.724;37.612;2023-04-12T05:14:33;45.85;;;32.28;;
42094;SDS011;27753;55.724;37.612;2023-04-12T05:16:59;50.45;;;31.35;;
42094;SDS011;27753;55.724;37.612;2023-04-12T05:19:25;50.42;;;33.88;;
42094;SDS011;27753;55.724;37.612;2023-04-12T05:21:52;53.72;;;34.25;;
42094;SDS011;27753;55.724;37.612;2023-04-12T05:24:21;51.63;;;33.55;;
42094;SDS011;27753;55.724;37.612;2023-04-12T05:26:47;51.70;;;30.98;;
42094;SDS011;27753;55.724;37.612;2023-04-12T05:29:13;47.30;;;32.20;;
42094;SDS011;27753;55.724;37.612;2023-04-12T05:31:39;50.67;;;32.90;;
42094;SDS011;27753;55.724;37.612;2023-04-12T05:34:05;43.33;;;29.02;;
42094;SDS011;27753;55.724;37.612;2023-04-12T05:36:31;44.92;;;29.95;;
42094;SDS011;27753;55.724;37.612;2023-04-12T05:38:58;59.42;;;30.52;;
42094;SDS011;27753;55.724;37.612;2023-04-12T05:41:24;50.80;;;31.88;;
42094;SDS011;27753;55.724;37.612;2023-04-12T05:43:51;56.20;;;30.48;;
42094;SDS011;27753;55.724;37.612;2023-04-12T05:46:17;49.00;;;30.73;;
42094;SDS011;27753;55.724;37.612;2023-04-12T05:48:43;56.78;;;31.50;;
42094;SDS011;27753;55.724;37.612;2023-04-12T05:51:09;47.20;;;29.25;;
42094;SDS011;27753;55.724;37.612;2023-04-12T05:53:34;48.25;;;29.10;;
42094;SDS011;27753;55.724;37.612;2023-04-12T05:56:00;53.53;;;30.45;;
42094;SDS011;27753;55.724;37.612;2023-04-12T05:58:27;50.78;;;29.63;;
42094;SDS011;27753;55.724;37.612;2023-04-12T06:00:53;53.35;;;30.42;;
42094;SDS011;27753;55.724;37.612;2023-04-12T06:03:20;50.25;;;29.25;;
42094;SDS011;27753;55.724;37.612;2023-04-12T06:05:51;56.42;;;29.83;;
42094;SDS011;27753;55.724;37.612;2023-04-12T06:08:17;42.53;;;27.25;;
42094;SDS011;27753;55.724;37.612;2023-04-12T06:10:43;54.45;;;27.63;;
42094;SDS011;27753;55.724;37.612;2023-04-12T06:13:09;43.30;;;30.17;;
42094;SDS011;27753;55.724;37.612;2023-04-12T06:15:35;43.03;;;25.63;;
42094;SDS011;27753;55.724;37.612;2023-04-12T06:18:01;49.45;;;25.90;;
42094;SDS011;27753;55.724;37.612;2023-04-12T06:20:27;40.10;;;24.98;;
42094;SDS011;27753;55.724;37.612;2023-04-12T06:22:53;36.78;;;27.15;;
42094;SDS011;27753;55.724;37.612;2023-04-12T06:25:19;46.67;;;25.98;;
42094;SDS011;27753;55.724;37.612;2023-04-12T06:27:45;41.80;;;22.87;;
42094;SDS011;27753;55.724;37.612;2023-04-12T06:30:11;49.35;;;26.15;;
42094;SDS011;27753;55.724;37.612;2023-04-12T06:32:37;34.90;;;23.67;;
42094;SDS011;27753;55.724;37.612;2023-04-12T06:35:04;37.72;;;23.42;;
42094;SDS011;27753;55.724;37.612;2023-04-12T06:37:30;32.63;;;21.35;;
42094;SDS011;27753;55.724;37.612;2023-04-12T06:39:56;36.30;;;19.52;;
42094;SDS011;27753;55.724;37.612;2023-04-12T06:42:22;29.63;;;16.92;;
42094;SDS011;27753;55.724;37.612;2023-04-12T06:44:48;33.20;;;18.63;;
42094;SDS011;27753;55.724;37.612;2023-04-12T06:47:14;34.20;;;18.27;;
42094;SDS011;27753;55.724;37.612;2023-04-12T06:49:40;23.60;;;15.50;;
42094;SDS011;27753;55.724;37.612;2023-04-12T06:52:06;18.92;;;13.73;;
42094;SDS011;27753;55.724;37.612;2023-04-12T06:54:35;18.33;;;14.35;;
42094;SDS011;27753;55.724;37.612;2023-04-12T06:57:02;21.98;;;14.45;;
42094;SDS011;27753;55.724;37.612;2023-04-12T06:59:28;26.30;;;16.13;;
42094;SDS011;27753;55.724;37.612;2023-04-12T07:01:54;20.05;;;13.80;;
42094;SDS011;27753;55.724;37.612;2023-04-12T07:04:20;26.58;;;15.57;;
42094;SDS011;27753;55.724;37.612;2023-04-12T07:06:45;25.30;;;15.13;;
42094;SDS011;27753;55.724;37.612;2023-04-12T07:09:11;33.80;;;16.27;;
42094;SDS011;27753;55.724;37.612;2023-04-12T07:11:37;29.08;;;16.23;;
42094;SDS011;27753;55.724;37.612;2023-04-12T07:14:03;26.65;;;15.98;;
42094;SDS011;27753;55.724;37.612;2023-04-12T07:16:30;34.42;;;18.00;;
42094;SDS011;27753;55.724;37.612;2023-04-12T07:18:57;25.73;;;18.00;;
42094;SDS011;27753;55.724;37.612;2023-04-12T07:21:24;28.50;;;17.42;;
42094;SDS011;27753;55.724;37.612;2023-04-12T07:23:51;28.90;;;18.05;;
42094;SDS011;27753;55.724;37.612;2023-04-12T07:26:17;20.40;;;16.63;;
42094;SDS011;27753;55.724;37.612;2023-04-12T07:28:43;28.17;;;16.95;;
42094;SDS011;27753;55.724;37.612;2023-04-12T07:31:09;19.48;;;16.80;;
42094;SDS011;27753;55.724;37.612;2023-04-12T07:33:35;28.87;;;16.90;;
42094;SDS011;27753;55.724;37.612;2023-04-12T07:36:01;24.63;;;17.07;;
42094;SDS011;27753;55.724;37.612;2023-04-12T07:40:54;26.75;;;17.75;;
42094;SDS011;27753;55.724;37.612;2023-04-12T07:43:21;29.27;;;18.27;;
42094;SDS011;27753;55.724;37.612;2023-04-12T07:45:47;21.10;;;17.73;;
42094;SDS011;27753;55.724;37.612;2023-04-12T07:48:13;24.75;;;17.02;;
42094;SDS011;27753;55.724;37.612;2023-04-12T07:55:52;31.45;;;19.40;;
42094;SDS011;27753;55.724;37.612;2023-04-12T07:58:19;23.27;;;17.63;;
42094;SDS011;27753;55.724;37.612;2023-04-12T08:00:46;25.08;;;19.23;;
42094;SDS011;27753;55.724;37.612;2023-04-12T08:03:13;25.00;;;18.67;;
42094;SDS011;27753;55.724;37.612;2023-04-12T08:05:40;21.85;;;17.75;;
42094;SDS011;27753;55.724;37.612;2023-04-12T08:08:06;27.98;;;18.15;;
42094;SDS011;27753;55.724;37.612;2023-04-12T08:10:36;27.05;;;17.98;;
42094;SDS011;27753;55.724;37.612;2023-04-12T08:13:03;26.02;;;18.33;;
42094;SDS011;27753;55.724;37.612;2023-04-12T08:15:30;27.90;;;19.52;;
42094;SDS011;27753;55.724;37.612;2023-04-12T08:17:56;24.83;;;18.53;;
42094;SDS011;27753;55.724;37.612;2023-04-12T08:20:22;26.85;;;18.98;;
42094;SDS011;27753;55.724;37.612;2023-04-12T08:22:48;26.50;;;18.35;;
42094;SDS011;27753;55.724;37.612;2023-04-12T08:25:16;24.98;;;17.38;;
42094;SDS011;27753;55.724;37.612;2023-04-12T08:27:42;24.40;;;17.10;;
42094;SDS011;27753;55.724;37.612;2023-04-12T08:30:10;24.27;;;16.00;;
42094;SDS011;27753;55.724;37.612;2023-04-12T08:32:37;15.35;;;13.30;;
42094;SDS011;27753;55.724;37.612;2023-04-12T08:35:03;13.55;;;11.88;;
42094;SDS011;27753;55.724;37.612;2023-04-12T08:37:30;17.77;;;12.98;;
42094;SDS011;27753;55.724;37.612;2023-04-12T08:39:58;21.67;;;14.15;;
42094;SDS011;27753;55.724;37.612;2023-04-12T08:42:25;19.10;;;14.85;;
42094;SDS011;27753;55.724;37.612;2023-04-12T08:47:17;17.25;;;11.52;;
42094;SDS011;27753;55.724;37.612;2023-04-12T08:49:46;13.82;;;10.75;;
42094;SDS011;27753;55.724;37.612;2023-04-12T08:52:12;12.85;;;9.82;;
42094;SDS011;27753;55.724;37.612;2023-04-12T08:54:38;16.05;;;11.00;;
42094;SDS011;27753;55.724;37.612;2023-04-12T08:57:05;18.77;;;12.65;;
42094;SDS011;27753;55.724;37.612;2023-04-12T08:59:34;20.00;;;11.98;;
42094;SDS011;27753;55.724;37.612;2023-04-12T09:02:02;17.52;;;11.75;;
42094;SDS011;27753;55.724;37.612;2023-04-12T09:04:29;12.95;;;11.50;;
42094;SDS011;27753;55.724;37.612;2023-04-12T09:06:55;15.50;;;12.25;;
42094;SDS011;27753;55.724;37.612;2023-04-12T09:09:42;19.50;;;12.70;;
42094;SDS011;27753;55.724;37.612;2023-04-12T09:12:10;16.92;;;12.43;;
42094;SDS011;27753;55.724;37.612;2023-04-12T09:17:03;32.55;;;14.38;;
42094;SDS011;27753;55.724;37.612;2023-04-12T09:19:30;19.75;;;14.00;;
42094;SDS011;27753;55.724;37.612;2023-04-12T09:21:57;15.07;;;12.35;;
42094;SDS011;27753;55.724;37.612;2023-04-12T09:24:23;15.40;;;11.57;;
42094;SDS011;27753;55.724;37.612;2023-04-12T09:27:10;16.77;;;12.23;;
42094;SDS011;27753;55.724;37.612;2023-04-12T09:34:28;12.55;;;10.23;;
42094;SDS011;27753;55.724;37.612;2023-04-12T09:39:33;17.70;;;10.65;;
42094;SDS011;27753;55.724;37.612;2023-04-12T09:42:02;15.63;;;10.80;;
42094;SDS011;27753;55.724;37.612;2023-04-12T09:44:32;12.80;;;9.05;;
42094;SDS011;27753;55.724;37.612;2023-04-12T09:46:59;10.02;;;8.95;;
42094;SDS011;27753;55.724;37.612;2023-04-12T09:49:42;10.43;;;8.35;;
42094;SDS011;27753;55.724;37.612;2023-04-12T09:52:11;14.57;;;8.95;;
42094;SDS011;27753;55.724;37.612;2023-04-12T09:54:42;18.02;;;10.02;;
42094;SDS011;27753;55.724;37.612;2023-04-12T09:57:10;13.07;;;8.60;;
42094;SDS011;27753;55.724;37.612;2023-04-12T09:59:38;11.13;;;10.02;;
42094;SDS011;27753;55.724;37.612;2023-04-12T10:02:06;12.77;;;9.00;;
42094;SDS011;27753;55.724;37.612;2023-04-12T10:04:39;13.02;;;9.52;;
42094;SDS011;27753;55.724;37.612;2023-04-12T10:07:07;12.63;;;10.57;;
42094;SDS011;27753;55.724;37.612;2023-04-12T10:09:33;14.50;;;10.77;;
42094;SDS011;27753;55.724;37.612;2023-04-12T10:12:02;11.85;;;9.35;;
42094;SDS011;27753;55.724;37.612;2023-04-12T10:14:28;14.15;;;9.20;;
42094;SDS011;27753;55.724;37.612;2023-04-12T10:16:59;17.70;;;8.88;;
42094;SDS011;27753;55.724;37.612;2023-04-12T10:19:27;10.85;;;9.52;;
42094;SDS011;27753;55.724;37.612;2023-04-12T10:21:55;11.38;;;9.40;;
42094;SDS011;27753;55.724;37.612;2023-04-12T10:24:22;12.32;;;9.15;;
42094;SDS011;27753;55.724;37.612;2023-04-12T10:26:49;13.68;;;9.93;;
42094;SDS011;27753;55.724;37.612;2023-04-12T10:29:32;14.20;;;9.35;;
42094;SDS011;27753;55.724;37.612;2023-04-12T10:32:17;13.90;;;10.25;;
42094;SDS011;27753;55.724;37.612;2023-04-12T10:34:54;16.95;;;10.65;;
42094;SDS011;27753;55.724;37.612;2023-04-12T10:37:23;18.58;;;9.90;;
42094;SDS011;27753;55.724;37.612;2023-04-12T10:40:30;13.82;;;9.80;;
42094;SDS011;27753;55.724;37.612;2023-04-12T10:43:22;18.75;;;10.98;;
42094;SDS011;27753;55.724;37.612;2023-04-12T10:45:50;16.25;;;10.73;;
42094;SDS011;27753;55.724;37.612;2023-04-12T10:51:15;17.75;;;11.07;;
42094;SDS011;27753;55.724;37.612;2023-04-12T10:59:00;13.90;;;11.55;;
42094;SDS011;27753;55.724;37.612;2023-04-12T11:01:27;15.73;;;11.68;;
42094;SDS011;27753;55.724;37.612;2023-04-12T11:09:28;15.40;;;11.30;;
42094;SDS011;27753;55.724;37.612;2023-04-12T11:14:35;13.27;;;10.35;;
42094;SDS011;27753;55.724;37.612;2023-04-12T11:22:10;15.38;;;10.50;;
42094;SDS011;27753;55.724;37.612;2023-04-12T11:24:37;13.10;;;10.52;;
42094;SDS011;27753;55.724;37.612;2023-04-12T11:27:07;12.52;;;10.07;;
42094;SDS011;27753;55.724;37.612;2023-04-12T11:29:33;16.00;;;10.30;;
42094;SDS011;27753;55.724;37.612;2023-04-12T11:32:03;13.50;;;10.73;;
42094;SDS011;27753;55.724;37.612;2023-04-12T11:34:34;15.63;;;10.90;;
42094;SDS011;27753;55.724;37.612;2023-04-12T11:37:04;13.82;;;10.80;;
42094;SDS011;27753;55.724;37.612;2023-04-12T11:39:33;16.83;;;10.75;;
42094;SDS011;27753;55.724;37.612;2023-04-12T11:42:02;18.73;;;11.38;;
42094;SDS011;27753;55.724;37.612;2023-04-12T11:44:30;15.35;;;11.55;;
42094;SDS011;27753;55.724;37.612;2023-04-12T11:46:57;15.15;;;10.23;;
42094;SDS011;27753;55.724;37.612;2023-04-12T11:49:25;15.20;;;11.43;;
42094;SDS011;27753;55.724;37.612;2023-04-12T11:52:01;16.35;;;10.35;;
42094;SDS011;27753;55.724;37.612;2023-04-12T11:54:28;16.70;;;10.27;;
42094;SDS011;27753;55.724;37.612;2023-04-12T11:56:56;15.88;;;10.73;;
42094;SDS011;27753;55.724;37.612;2023-04-12T11:59:32;17.10;;;11.60;;
42094;SDS011;27753;55.724;37.612;2023-04-12T12:02:00;19.98;;;10.52;;
42094;SDS011;27753;55.724;37.612;2023-04-12T12:04:29;12.98;;;10.35;;
42094;SDS011;27753;55.724;37.612;2023-04-12T12:06:56;11.32;;;9.40;;
42094;SDS011;27753;55.724;37.612;2023-04-12T12:09:24;14.35;;;9.57;;
42094;SDS011;27753;55.724;37.612;2023-04-12T12:11:52;11.82;;;10.00;;
42094;SDS011;27753;55.724;37.612;2023-04-12T12:14:19;14.48;;;9.98;;
42094;SDS011;27753;55.724;37.612;2023-04-12T12:16:57;18.30;;;10.68;;
42094;SDS011;27753;55.724;37.612;2023-04-12T12:19:30;15.90;;;10.70;;
42094;SDS011;27753;55.724;37.612;2023-04-12T12:22:14;14.85;;;9.90;;
42094;SDS011;27753;55.724;37.612;2023-04-12T12:24:54;20.55;;;11.48;;
42094;SDS011;27753;55.724;37.612;2023-04-12T12:27:22;14.00;;;10.25;;
42094;SDS011;27753;55.724;37.612;2023-04-12T12:29:54;18.52;;;10.32;;
42094;SDS011;27753;55.724;37.612;2023-04-12T12:32:25;11.30;;;9.02;;
42094;SDS011;27753;55.724;37.612;2023-04-12T12:34:56;11.80;;;9.93;;
42094;SDS011;27753;55.724;37.612;2023-04-12T12:37:23;18.83;;;10.13;;
42094;SDS011;27753;55.724;37.612;2023-04-12T12:42:53;18.85;;;9.20;;
42094;SDS011;27753;55.724;37.612;2023-04-12T12:45:21;15.05;;;10.20;;
42094;SDS011;27753;55.724;37.612;2023-04-12T12:47:56;14.77;;;9.15;;
42094;SDS011;27753;55.724;37.612;2023-04-12T12:50:24;14.02;;;8.85;;
42094;SDS011;27753;55.724;37.612;2023-04-12T12:52:52;17.58;;;10.35;;
42094;SDS011;27753;55.724;37.612;2023-04-12T12:55:19;12.82;;;8.43;;
42094;SDS011;27753;55.724;37.612;2023-04-12T12:57:46;19.80;;;10.77;;
42094;SDS011;27753;55.724;37.612;2023-04-12T13:00:13;17.92;;;10.25;;
42094;SDS011;27753;55.724;37.612;2023-04-12T13:02:40;12.65;;;10.15;;
42094;SDS011;27753;55.724;37.612;2023-04-12T13:05:06;12.93;;;9.20;;
42094;SDS011;27753;55.724;37.612;2023-04-12T13:07:33;16.83;;;10.30;;
42094;SDS011;27753;55.724;37.612;2023-04-12T13:10:00;16.85;;;9.70;;
42094;SDS011;27753;55.724;37.612;2023-04-12T13:12:26;20.20;;;10.45;;
42094;SDS011;27753;55.724;37.612;2023-04-12T13:14:52;18.10;;;10.30;;
42094;SDS011;27753;55.724;37.612;2023-04-12T13:17:18;12.82;;;9.27;;
42094;SDS011;27753;55.724;37.612;2023-04-12T13:19:45;14.52;;;9.15;;
42094;SDS011;27753;55.724;37.612;2023-04-12T13:22:12;18.17;;;8.87;;
42094;SDS011;27753;55.724;37.612;2023-04-12T13:24:38;12.57;;;9.93;;
42094;SDS011;27753;55.724;37.612;2023-04-12T13:27:05;21.20;;;14.73;;
42094;SDS011;27753;55.724;37.612;2023-04-12T13:29:32;16.02;;;9.85;;
42094;SDS011;27753;55.724;37.612;2023-04-12T13:31:58;15.05;;;8.75;;
42094;SDS011;27753;55.724;37.612;2023-04-12T13:34:24;15.00;;;9.40;;
42094;SDS011;27753;55.724;37.612;2023-04-12T13:36:50;13.10;;;9.40;;
42094;SDS011;27753;55.724;37.612;2023-04-12T13:39:16;14.88;;;9.15;;
42094;SDS011;27753;55.724;37.612;2023-04-12T13:41:43;13.10;;;9.27;;
42094;SDS011;27753;55.724;37.612;2023-04-12T13:44:09;12.15;;;9.43;;
42094;SDS011;27753;55.724;37.612;2023-04-12T13:46:35;12.18;;;9.20;;
42094;SDS011;27753;55.724;37.612;2023-04-12T13:49:00;17.60;;;9.40;;
42094;SDS011;27753;55.724;37.612;2023-04-12T13:51:27;16.85;;;11.25;;
42094;SDS011;27753;55.724;37.612;2023-04-12T13:53:56;20.65;;;11.05;;
42094;SDS011;27753;55.724;37.612;2023-04-12T13:56:21;17.52;;;10.80;;
42094;SDS011;27753;55.724;37.612;2023-04-12T13:58:47;17.00;;;10.15;;
42094;SDS011;27753;55.724;37.612;2023-04-12T14:01:13;18.17;;;9.82;;
42094;SDS011;27753;55.724;37.612;2023-04-12T14:03:39;15.15;;;9.75;;
42094;SDS011;27753;55.724;37.612;2023-04-12T14:06:05;12.27;;;8.82;;
42094;SDS011;27753;55.724;37.612;2023-04-12T14:08:32;14.82;;;10.40;;
42094;SDS011;27753;55.724;37.612;2023-04-12T14:10:58;13.88;;;9.40;;
42094;SDS011;27753;55.724;37.612;2023-04-12T14:13:25;18.02;;;10.98;;
42094;SDS011;27753;55.724;37.612;2023-04-12T14:15:51;18.03;;;11.93;;
42094;SDS011;27753;55.724;37.612;2023-04-12T14:18:18;16.00;;;10.70;;
42094;SDS011;27753;55.724;37.612;2023-04-12T14:20:52;17.98;;;11.35;;
42094;SDS011;27753;55.724;37.612;2023-04-12T14:23:19;20.13;;;11.60;;
42094;SDS011;27753;55.724;37.612;2023-04-12T14:25:54;22.60;;;11.15;;
42094;SDS011;27753;55.724;37.612;2023-04-12T14:28:20;22.90;;;11.55;;
42094;SDS011;27753;55.724;37.612;2023-04-12T14:30:49;16.92;;;12.35;;
42094;SDS011;27753;55.724;37.612;2023-04-12T14:35:42;14.07;;;10.65;;
42094;SDS011;27753;55.724;37.612;2023-04-12T14:38:08;17.20;;;10.57;;
42094;SDS011;27753;55.724;37.612;2023-04-12T14:40:34;14.10;;;9.88;;
42094;SDS011;27753;55.724;37.612;2023-04-12T14:43:00;25.02;;;11.63;;
42094;SDS011;27753;55.724;37.612;2023-04-12T14:45:26;16.05;;;9.80;;
42094;SDS011;27753;55.724;37.612;2023-04-12T14:47:52;19.48;;;10.60;;
42094;SDS011;27753;55.724;37.612;2023-04-12T14:50:19;21.42;;;12.27;;
42094;SDS011;27753;55.724;37.612;2023-04-12T14:52:45;22.47;;;12.67;;
42094;SDS011;27753;55.724;37.612;2023-04-12T14:55:12;21.75;;;11.95;;
42094;SDS011;27753;55.724;37.612;2023-04-12T14:57:38;18.10;;;12.18;;
42094;SDS011;27753;55.724;37.612;2023-04-12T15:00:07;22.08;;;12.07;;
42094;SDS011;27753;55.724;37.612;2023-04-12T15:02:40;19.40;;;12.80;;
42094;SDS011;27753;55.724;37.612;2023-04-12T15:05:08;21.25;;;12.40;;
42094;SDS011;27753;55.724;37.612;2023-04-12T15:07:34;22.58;;;13.05;;
42094;SDS011;27753;55.724;37.612;2023-04-12T15:10:04;31.20;;;12.57;;
42094;SDS011;27753;55.724;37.612;2023-04-12T15:12:31;12.77;;;10.25;;
42094;SDS011;27753;55.724;37.612;2023-04-12T15:15:01;15.43;;;12.02;;